Time;durP1;ratioP1;P1;durP2;ratioP2;P2;SDS_P1;SDS_P2;PMS_P1;PMS_P2;Temp;Humidity;BMP_temperature;BMP_pressure;BME280_temperature;BME280_humidity;BME280_pressure;Samples;Min_cycle;Max_cycle;Signal;HPM_P1;HPM_P2
2022/06/01 00:01:44;;;;;;;25.02;15.45;;;;;;;18.63;100.00;100290.66;5034283;28;20045;-85
2022/06/01 00:04:10;;;;;;;23.17;15.32;;;;;;;18.51;100.00;100285.16;5033906;28;20060;-86
2022/06/01 00:06:35;;;;;;;24.13;16.30;;;;;;;18.37;100.00;100289.78;5016402;28;20033;-84
2022/06/01 00:09:02;;;;;;;23.50;15.52;;;;;;;18.42;100.00;100291.81;5033861;28;20045;-88
2022/06/01 00:11:28;;;;;;;27.10;15.27;;;;;;;18.43;100.00;100288.06;4999767;28;20110;-89
2022/06/01 00:13:54;;;;;;;25.05;15.63;;;;;;;18.38;100.00;100290.59;5033981;28;20465;-86
2022/06/01 00:16:19;;;;;;;27.85;17.10;;;;;;;18.35;100.00;100296.41;5033709;28;20088;-84
2022/06/01 00:18:45;;;;;;;32.92;16.77;;;;;;;18.30;100.00;100296.22;5033827;28;20369;-89
2022/06/01 00:21:11;;;;;;;29.33;17.75;;;;;;;18.25;100.00;100293.38;5034024;28;20064;-90
2022/06/01 00:23:36;;;;;;;23.15;15.82;;;;;;;18.35;100.00;100294.53;5033971;28;20127;-86
2022/06/01 00:26:02;;;;;;;29.85;16.30;;;;;;;18.34;100.00;100290.22;5034764;28;20034;-87
2022/06/01 00:28:29;;;;;;;29.70;17.00;;;;;;;18.34;100.00;100297.44;5018740;28;20073;-86
2022/06/01 00:30:55;;;;;;;27.45;17.40;;;;;;;18.35;100.00;100299.91;5020000;28;20105;-89
2022/06/01 00:33:21;;;;;;;27.05;16.90;;;;;;;18.24;100.00;100299.78;5036645;28;20103;-87
2022/06/01 00:35:47;;;;;;;26.00;16.77;;;;;;;18.31;100.00;100298.69;5036431;28;20025;-85
2022/06/01 00:38:12;;;;;;;29.48;17.80;;;;;;;18.23;100.00;100295.47;5034021;28;20546;-84
2022/06/01 00:40:39;;;;;;;29.20;17.58;;;;;;;18.08;100.00;100285.03;5016394;28;20507;-84
2022/06/01 00:43:26;;;;;;;29.85;17.38;;;;;;;18.14;100.00;100288.69;5034092;28;20481;-86
2022/06/01 00:45:52;;;;;;;27.90;17.23;;;;;;;18.03;100.00;100288.34;5034412;28;20464;-86
2022/06/01 00:48:24;;;;;;;24.92;15.73;;;;;;;18.13;100.00;100292.44;5033946;28;20040;-86
2022/06/01 00:50:50;;;;;;;29.58;16.50;;;;;;;18.13;100.00;100292.44;5016417;28;20095;-86
2022/06/01 00:53:27;;;;;;;25.00;16.13;;;;;;;18.16;100.00;100294.69;5034151;28;20041;-88
2022/06/01 00:56:04;;;;;;;24.40;15.80;;;;;;;18.15;100.00;100299.22;5033781;28;20069;-84
2022/06/01 00:58:34;;;;;;;23.52;15.50;;;;;;;18.14;100.00;100308.31;5033233;28;20025;-89
2022/06/01 01:01:00;;;;;;;27.63;16.15;;;;;;;18.02;100.00;100297.47;5033325;28;20177;-86
2022/06/01 01:03:33;;;;;;;24.95;16.50;;;;;;;17.95;100.00;100294.00;5016448;28;20033;-86
2022/06/01 01:06:23;;;;;;;26.88;16.35;;;;;;;17.94;100.00;100300.38;5034010;28;20397;-88
2022/06/01 01:08:48;;;;;;;24.90;17.00;;;;;;;17.86;100.00;100303.34;5034050;28;20050;-87
2022/06/01 01:11:19;;;;;;;22.95;14.48;;;;;;;17.88;100.00;100305.78;5034026;28;20141;-88
2022/06/01 01:13:47;;;;;;;22.17;15.00;;;;;;;17.92;100.00;100310.50;5033966;28;20481;-88
2022/06/01 01:16:17;;;;;;;22.27;14.73;;;;;;;17.81;100.00;100308.50;5034131;28;20030;-90
2022/06/01 01:18:45;;;;;;;22.02;13.30;;;;;;;17.72;100.00;100312.47;5033111;28;20108;-87
2022/06/01 01:21:46;;;;;;;25.20;14.20;;;;;;;17.65;100.00;100314.34;5033590;28;20166;-89
2022/06/01 01:24:27;;;;;;;21.35;12.68;;;;;;;17.62;100.00;100313.97;5033731;28;20555;-85
2022/06/01 01:26:53;;;;;;;24.02;14.70;;;;;;;17.51;100.00;100307.38;5034494;28;20147;-88
2022/06/01 01:29:36;;;;;;;25.38;14.52;;;;;;;17.55;100.00;100308.59;5033887;28;20483;-89
2022/06/01 01:32:05;;;;;;;24.77;13.93;;;;;;;17.64;100.00;100314.56;5033327;28;20484;-85
2022/06/01 01:34:35;;;;;;;19.58;11.63;;;;;;;17.79;100.00;100321.31;5032888;28;20041;-85
2022/06/01 01:37:04;;;;;;;19.38;10.35;;;;;;;17.99;100.00;100326.56;5033135;28;20037;-86
2022/06/01 01:39:35;;;;;;;25.77;10.98;;;;;;;17.89;100.00;100324.34;5033000;28;20048;-85
2022/06/01 01:42:01;;;;;;;23.55;11.07;;;;;;;17.77;100.00;100323.38;5036286;28;20033;-87
2022/06/01 01:44:49;;;;;;;19.05;9.98;;;;;;;17.80;100.00;100322.94;5036686;28;20469;-86
2022/06/01 01:47:15;;;;;;;28.08;10.07;;;;;;;17.67;100.00;100320.31;5019462;28;20061;-86
2022/06/01 01:49:41;;;;;;;15.20;9.90;;;;;;;17.67;100.00;100317.63;5018725;28;20125;-87
2022/06/01 01:52:16;;;;;;;15.25;9.55;;;;;;;17.72;100.00;100325.88;5036564;28;20033;-90
2022/06/01 01:54:47;;;;;;;17.40;9.48;;;;;;;17.65;100.00;100310.84;5036834;28;20371;-89
2022/06/01 01:57:44;;;;;;;18.70;10.43;;;;;;;17.58;100.00;100320.78;5018597;28;20038;-86
2022/06/01 02:00:39;;;;;;;15.00;10.00;;;;;;;17.61;100.00;100313.13;5036664;28;20377;-87
2022/06/01 02:03:24;;;;;;;18.10;9.40;;;;;;;17.54;100.00;100310.44;4956001;29;20039;-86
2022/06/01 02:06:09;;;;;;;21.55;10.05;;;;;;;17.39;100.00;100301.84;4958774;28;20046;-86
2022/06/01 02:08:50;;;;;;;20.75;9.43;;;;;;;17.30;100.00;100303.09;4958606;29;20384;-87
2022/06/01 02:14:22;;;;;;;16.40;7.80;;;;;;;17.59;100.00;100293.78;4998785;28;20045;-91
2022/06/01 02:17:07;;;;;;;15.45;7.43;;;;;;;17.74;100.00;100288.94;5018114;28;20404;-86
2022/06/01 02:19:38;;;;;;;22.50;7.25;;;;;;;17.69;100.00;100296.00;5036110;28;20029;-87
2022/06/01 02:22:05;;;;;;;18.38;7.95;;;;;;;17.54;100.00;100297.03;5036166;28;20056;-86
2022/06/01 02:24:31;;;;;;;16.70;7.78;;;;;;;17.36;100.00;100301.47;5036319;28;20034;-89
2022/06/01 02:26:58;;;;;;;14.18;7.47;;;;;;;17.28;100.00;100299.81;5036951;28;20033;-88
2022/06/01 02:29:47;;;;;;;13.93;7.80;;;;;;;17.24;100.00;100308.47;5037064;28;20120;-86
2022/06/01 02:32:15;;;;;;;15.80;7.63;;;;;;;17.09;100.00;100299.88;5054637;28;20048;-86
2022/06/01 02:34:43;;;;;;;18.35;8.88;;;;;;;16.93;100.00;100303.84;5057464;28;20038;-86
2022/06/01 02:37:10;;;;;;;24.25;10.60;;;;;;;16.78;100.00;100297.88;5043388;28;20032;-87
2022/06/01 02:39:39;;;;;;;17.55;9.93;;;;;;;16.75;100.00;100293.75;5038312;28;20045;-87
2022/06/01 02:42:26;;;;;;;19.23;9.82;;;;;;;16.84;100.00;100297.03;5036123;28;20498;-87
2022/06/01 02:44:58;;;;;;;21.60;11.48;;;;;;;16.87;100.00;100300.13;5018316;28;20041;-86
2022/06/01 02:47:26;;;;;;;23.35;11.55;;;;;;;16.80;100.00;100302.00;5036219;28;20415;-89
2022/06/01 02:49:51;;;;;;;25.90;14.38;;;;;;;16.76;100.00;100287.38;5036212;28;20029;-88
2022/06/01 02:52:17;;;;;;;24.80;13.82;;;;;;;16.78;100.00;100298.69;5035396;28;20037;-88
2022/06/01 02:54:43;;;;;;;23.95;12.52;;;;;;;16.77;100.00;100302.38;5036238;28;20038;-87
2022/06/01 02:57:09;;;;;;;28.17;13.95;;;;;;;16.74;100.00;100297.47;5035898;28;20116;-87
2022/06/01 02:59:36;;;;;;;27.27;13.55;;;;;;;16.58;100.00;100291.69;5018140;28;20057;-88
2022/06/01 03:02:02;;;;;;;28.23;14.15;;;;;;;16.54;100.00;100289.41;5018136;28;20041;-86
2022/06/01 03:04:27;;;;;;;26.25;14.75;;;;;;;16.46;100.00;100289.63;5035740;28;20045;-88
2022/06/01 03:06:53;;;;;;;30.05;13.60;;;;;;;16.42;100.00;100285.72;5035811;28;20034;-89
2022/06/01 03:09:20;;;;;;;26.48;15.00;;;;;;;16.46;100.00;100294.97;5017658;28;20033;-87
2022/06/01 03:11:45;;;;;;;30.95;13.27;;;;;;;16.39;100.00;100287.97;5035158;28;20087;-84
2022/06/01 03:14:11;;;;;;;35.83;13.23;;;;;;;16.33;100.00;100294.97;5017939;28;20044;-88
2022/06/01 03:16:40;;;;;;;26.60;12.93;;;;;;;16.39;100.00;100294.16;5035446;28;20038;-87
2022/06/01 03:19:06;;;;;;;22.55;12.82;;;;;;;16.47;100.00;100291.25;5017920;28;20033;-85
2022/06/01 03:21:32;;;;;;;22.52;11.73;;;;;;;16.42;100.00;100292.91;5018383;28;20430;-87
2022/06/01 03:23:58;;;;;;;23.50;10.68;;;;;;;16.50;100.00;100300.75;5036138;28;20041;-90
2022/06/01 03:26:23;;;;;;;20.38;10.98;;;;;;;16.45;100.00;100303.19;5017774;28;20033;-86
2022/06/01 03:28:49;;;;;;;20.38;11.00;;;;;;;16.42;100.00;100303.63;5035544;28;20369;-89
2022/06/01 03:31:16;;;;;;;20.30;10.75;;;;;;;16.48;100.00;100310.81;5035445;28;20037;-85
2022/06/01 03:33:42;;;;;;;22.02;11.10;;;;;;;16.67;100.00;100307.34;5017833;28;20051;-87
2022/06/01 03:36:09;;;;;;;20.25;10.60;;;;;;;16.63;100.00;100314.16;5035331;28;20098;-87
2022/06/01 03:38:35;;;;;;;25.08;9.10;;;;;;;16.70;100.00;100312.31;5035620;28;20036;-88
2022/06/01 03:41:00;;;;;;;27.45;9.70;;;;;;;16.63;100.00;100306.13;5035947;28;20411;-91
2022/06/01 03:43:29;;;;;;;15.52;8.70;;;;;;;16.56;100.00;100316.00;5035818;28;20120;-85
2022/06/01 03:45:58;;;;;;;18.13;9.10;;;;;;;16.59;100.00;100315.59;5035604;28;20156;-86
2022/06/01 03:48:28;;;;;;;21.00;8.77;;;;;;;16.58;100.00;100316.59;5017947;28;20046;-85
2022/06/01 03:50:55;;;;;;;17.23;7.80;;;;;;;16.51;100.00;100315.75;5034813;28;20037;-87
2022/06/01 03:53:23;;;;;;;13.82;7.82;;;;;;;16.60;100.00;100317.25;5034797;28;20103;-87
2022/06/01 03:55:49;;;;;;;15.02;6.68;;;;;;;16.60;100.00;100324.44;5034937;28;20046;-88
2022/06/01 03:58:18;;;;;;;14.55;7.40;;;;;;;16.63;100.00;100324.84;5035122;28;20041;-84
2022/06/01 04:00:45;;;;;;;16.65;7.60;;;;;;;16.75;100.00;100331.22;5017039;28;20042;-85
2022/06/01 04:03:11;;;;;;;15.38;7.35;;;;;;;16.86;100.00;100338.63;5034414;28;20037;-87
2022/06/01 04:05:37;;;;;;;16.27;6.72;;;;;;;16.82;100.00;100337.41;5035861;28;20033;-85
2022/06/01 04:08:03;;;;;;;14.25;7.05;;;;;;;16.76;100.00;100348.13;5034178;28;20396;-88
2022/06/01 04:10:28;;;;;;;15.05;6.00;;;;;;;16.71;100.00;100345.22;5034983;28;20033;-87
2022/06/01 04:12:54;;;;;;;24.35;7.07;;;;;;;16.83;100.00;100343.59;5034521;28;20033;-90
2022/06/01 04:15:19;;;;;;;22.38;6.65;;;;;;;17.03;100.00;100341.72;5034859;28;20033;-87
2022/06/01 04:17:45;;;;;;;14.25;6.15;;;;;;;17.14;100.00;100341.06;5035544;28;20030;-86
2022/06/01 04:20:11;;;;;;;16.67;6.38;;;;;;;17.16;100.00;100340.88;5038759;28;20503;-86
2022/06/01 04:22:42;;;;;;;18.23;5.93;;;;;;;17.19;100.00;100348.47;5016740;28;20604;-88
2022/06/01 04:25:11;;;;;;;12.25;5.25;;;;;;;17.27;100.00;100342.88;5016145;28;20040;-87
2022/06/01 04:27:38;;;;;;;15.68;5.82;;;;;;;17.30;100.00;100347.84;5034168;28;20794;-84
2022/06/01 04:30:09;;;;;;;17.88;6.15;;;;;;;17.28;100.00;100348.03;5019416;28;20079;-85
2022/06/01 04:32:35;;;;;;;12.80;5.70;;;;;;;17.39;100.00;100349.25;5033293;28;20120;-89
2022/06/01 04:35:02;;;;;;;15.90;6.13;;;;;;;17.43;100.00;100355.84;5015928;28;20040;-87
2022/06/01 04:37:28;;;;;;;10.65;5.38;;;;;;;17.51;100.00;100353.75;5016064;28;20029;-86
2022/06/01 04:39:54;;;;;;;24.67;5.68;;;;;;;17.54;100.00;100355.16;5034016;28;20033;-85
2022/06/01 04:42:19;;;;;;;13.40;5.72;;;;;;;17.71;100.00;100352.88;5039136;28;20029;-88
2022/06/01 04:44:46;;;;;;;12.05;5.20;;;;;;;17.92;100.00;100360.63;5016498;28;20488;-88
2022/06/01 04:47:12;;;;;;;14.25;5.40;;;;;;;18.05;100.00;100358.72;5002010;28;20040;-83
2022/06/01 04:49:38;;;;;;;12.48;5.30;;;;;;;18.29;100.00;100365.19;5034723;28;20393;-86
2022/06/01 04:52:05;;;;;;;17.25;6.05;;;;;;;18.24;100.00;100361.47;5034922;28;20456;-83
2022/06/01 04:54:31;;;;;;;17.38;6.43;;;;;;;18.14;100.00;100363.81;5036843;28;20033;-87
2022/06/01 04:56:57;;;;;;;20.88;5.72;;;;;;;18.19;100.00;100366.69;5017202;28;20125;-89
2022/06/01 04:59:23;;;;;;;14.10;5.60;;;;;;;18.42;100.00;100373.16;5053091;28;20124;-87
2022/06/01 05:01:49;;;;;;;16.27;6.28;;;;;;;18.54;100.00;100375.97;5052768;28;20090;-85
2022/06/01 05:04:14;;;;;;;19.15;5.82;;;;;;;18.62;100.00;100377.56;5052543;28;20045;-86
2022/06/01 05:06:40;;;;;;;10.52;5.47;;;;;;;18.70;100.00;100378.13;5019269;28;20140;-85
2022/06/01 05:09:06;;;;;;;23.55;5.68;;;;;;;18.67;100.00;100381.25;5055260;28;20036;-84
2022/06/01 05:11:32;;;;;;;15.98;5.88;;;;;;;18.60;100.00;100380.47;5058078;28;20044;-84
2022/06/01 05:13:59;;;;;;;11.57;5.75;;;;;;;18.83;100.00;100378.00;5058993;28;20094;-85
2022/06/01 05:16:25;;;;;;;20.23;5.93;;;;;;;19.03;100.00;100388.59;5057116;28;20136;-85
2022/06/01 05:18:50;;;;;;;21.15;6.40;;;;;;;19.01;100.00;100383.44;5056538;28;20464;-87
2022/06/01 05:21:16;;;;;;;16.48;6.20;;;;;;;19.23;100.00;100388.41;5056692;28;20041;-88
2022/06/01 05:23:42;;;;;;;18.08;6.03;;;;;;;19.34;100.00;100401.13;5056415;28;20029;-85
2022/06/01 05:26:07;;;;;;;13.48;5.70;;;;;;;19.46;100.00;100393.97;5056877;28;20124;-84
2022/06/01 05:28:34;;;;;;;18.48;5.53;;;;;;;19.46;100.00;100402.88;5056301;28;20036;-84
2022/06/01 05:31:12;;;;;;;18.85;5.90;;;;;;;19.50;100.00;100403.25;5056583;28;20033;-83
2022/06/01 05:33:40;;;;;;;19.23;6.05;;;;;;;19.58;100.00;100405.66;5058323;28;20041;-85
2022/06/01 05:36:06;;;;;;;15.30;6.40;;;;;;;19.56;100.00;100410.41;5056736;28;20029;-85
2022/06/01 05:38:32;;;;;;;19.42;6.85;;;;;;;19.50;100.00;100408.63;5058028;28;20044;-84
2022/06/01 05:40:57;;;;;;;18.58;6.40;;;;;;;19.48;100.00;100410.72;5039547;28;20112;-88
2022/06/01 05:43:23;;;;;;;18.88;6.13;;;;;;;19.58;100.00;100408.34;5056405;28;20033;-84
2022/06/01 05:45:49;;;;;;;22.13;6.40;;;;;;;19.71;100.00;100410.88;5056748;28;20440;-88
2022/06/01 05:48:20;;;;;;;19.42;6.68;;;;;;;19.81;100.00;100421.94;5057273;28;20033;-86
2022/06/01 05:50:45;;;;;;;14.40;7.20;;;;;;;20.05;100.00;100412.94;5058049;28;20037;-86
2022/06/01 05:53:12;;;;;;;17.35;6.38;;;;;;;20.31;100.00;100416.38;5058364;28;20062;-86
2022/06/01 05:55:38;;;;;;;23.67;7.05;;;;;;;20.46;100.00;100419.47;5064083;28;20041;-88
2022/06/01 05:58:18;;;;;;;18.30;7.65;;;;;;;20.59;100.00;100427.34;5064081;28;20032;-87
2022/06/01 06:00:45;;;;;;;18.67;7.25;;;;;;;20.86;100.00;100425.91;5058891;28;20037;-90
2022/06/01 06:03:11;;;;;;;15.30;7.10;;;;;;;21.08;100.00;100424.28;5038649;28;20108;-89
2022/06/01 06:08:22;;;;;;;17.85;6.43;;;;;;;21.65;100.00;100440.72;5057015;28;20041;-90
2022/06/01 06:10:48;;;;;;;12.80;6.10;;;;;;;22.00;100.00;100438.84;5056656;28;20393;-89
2022/06/01 06:13:13;;;;;;;22.33;6.20;;;;;;;22.38;100.00;100438.22;5057465;28;20140;-87
2022/06/01 06:15:39;;;;;;;15.60;6.30;;;;;;;22.60;98.34;100449.19;5056501;28;20028;-89
2022/06/01 06:18:05;;;;;;;10.73;6.05;;;;;;;23.54;96.00;100451.06;5056503;28;20377;-89
2022/06/01 06:20:30;;;;;;;18.98;5.53;;;;;;;24.08;89.38;100457.47;5038455;28;20068;-88
2022/06/01 06:22:56;;;;;;;20.02;5.63;;;;;;;25.07;84.66;100458.03;5057579;28;20044;-91
2022/06/01 06:25:21;;;;;;;22.88;5.22;;;;;;;25.02;83.39;100466.09;5040268;28;20037;-90
2022/06/01 06:27:48;;;;;;;14.63;5.80;;;;;;;25.14;81.22;100472.19;5057594;28;20117;-91
2022/06/01 06:30:18;;;;;;;16.17;5.68;;;;;;;24.98;81.49;100475.84;5044052;28;20172;-88
2022/06/01 06:32:44;;;;;;;15.38;6.07;;;;;;;25.08;79.21;100473.22;5063694;28;20037;-89
2022/06/01 06:35:12;;;;;;;15.35;5.15;;;;;;;25.46;78.76;100479.47;5043210;28;20130;-89
2022/06/01 06:37:41;;;;;;;11.75;4.53;;;;;;;25.82;74.21;100483.28;5021179;28;20405;-88
2022/06/01 06:40:08;;;;;;;12.50;4.65;;;;;;;25.67;74.84;100478.56;5055572;28;20043;-87
2022/06/01 06:42:34;;;;;;;12.30;4.70;;;;;;;25.40;77.01;100485.94;5055650;28;20045;-87
2022/06/01 06:44:59;;;;;;;15.95;4.47;;;;;;;25.94;75.71;100484.69;5056617;28;20099;-88
2022/06/01 06:47:25;;;;;;;10.23;4.43;;;;;;;26.62;72.80;100482.78;5056107;28;20029;-89
2022/06/01 06:49:53;;;;;;;9.57;5.28;;;;;;;25.29;78.46;100489.66;5037382;28;20037;-86
2022/06/01 06:52:19;;;;;;;13.60;5.00;;;;;;;25.40;79.75;100485.94;5055649;28;20045;-87
2022/06/01 06:54:44;;;;;;;10.40;4.68;;;;;;;25.60;77.06;100480.69;5038253;28;20051;-91
2022/06/01 06:57:10;;;;;;;10.63;4.63;;;;;;;26.26;74.78;100495.47;5055236;28;20117;-88
2022/06/01 06:59:37;;;;;;;17.75;5.15;;;;;;;25.62;75.91;100489.41;5053629;28;20082;-86
2022/06/01 07:02:03;;;;;;;16.23;5.38;;;;;;;26.07;73.98;100486.94;5047612;28;20086;-83
2022/06/01 07:04:28;;;;;;;16.02;5.57;;;;;;;26.33;72.69;100492.50;5068493;28;20106;-85
2022/06/01 07:06:54;;;;;;;11.10;4.90;;;;;;;26.52;70.76;100480.03;5074169;28;20467;-83
2022/06/01 07:09:20;;;;;;;15.30;4.88;;;;;;;26.59;71.53;100488.75;5056612;28;20376;-85
2022/06/01 07:11:45;;;;;;;13.45;5.43;;;;;;;26.65;71.01;100484.97;5074979;28;20361;-84
2022/06/01 07:14:10;;;;;;;12.02;5.95;;;;;;;27.16;64.73;100477.72;5068542;28;20392;-87
2022/06/01 07:16:36;;;;;;;11.10;6.07;;;;;;;26.55;67.04;100483.03;5068242;28;20064;-85
2022/06/01 07:19:05;;;;;;;17.35;6.13;;;;;;;26.68;68.25;100487.19;5063290;28;20029;-85
2022/06/01 07:21:31;;;;;;;23.88;6.60;;;;;;;26.66;67.60;100492.03;5056214;28;20124;-91
2022/06/01 07:23:57;;;;;;;10.82;5.88;;;;;;;26.77;66.98;100493.72;5054480;28;20041;-86
2022/06/01 07:26:30;;;;;;;14.00;6.72;;;;;;;26.52;68.82;100499.06;5074723;28;20067;-83
2022/06/01 07:28:56;;;;;;;12.40;6.25;;;;;;;26.49;68.33;100495.00;5076947;28;20135;-86
2022/06/01 07:31:22;;;;;;;19.45;6.55;;;;;;;26.72;67.36;100499.94;5046639;28;20413;-83
2022/06/01 07:33:48;;;;;;;9.98;4.93;;;;;;;27.97;62.26;100500.25;5022680;28;20453;-86
2022/06/01 07:36:16;;;;;;;10.35;5.70;;;;;;;27.33;64.32;100501.94;5076032;28;20039;-84
2022/06/01 07:44:15;;;;;;;15.75;5.78;;;;;;;28.12;62.25;100502.94;5052693;28;20041;-83
2022/06/01 07:46:40;;;;;;;17.92;5.50;;;;;;;27.72;61.90;100508.44;5074853;28;20062;-84
2022/06/01 07:49:07;;;;;;;13.32;5.82;;;;;;;27.38;62.79;100504.66;5056285;28;20037;-83
2022/06/01 07:51:34;;;;;;;18.40;5.70;;;;;;;26.64;66.89;100508.66;5069409;28;20041;-83
2022/06/01 07:54:00;;;;;;;14.07;4.97;;;;;;;26.78;67.38;100505.41;5034301;28;20396;-87
2022/06/01 07:56:25;;;;;;;14.13;5.75;;;;;;;26.79;67.51;100499.69;5068959;28;20029;-88
2022/06/01 07:58:51;;;;;;;11.43;5.68;;;;;;;26.87;67.24;100503.81;5074105;28;20104;-82
2022/06/01 08:01:21;;;;;;;13.23;5.85;;;;;;;27.01;65.45;100504.94;5073773;28;20033;-85
2022/06/01 08:03:47;;;;;;;12.23;5.78;;;;;;;27.92;62.82;100502.13;5071631;28;20043;-88
2022/06/01 08:06:13;;;;;;;11.60;5.82;;;;;;;28.62;60.53;100511.97;5066924;28;20435;-89
2022/06/01 08:08:39;;;;;;;16.00;7.07;;;;;;;28.67;59.62;100509.22;5077999;28;20496;-88
2022/06/01 08:11:17;;;;;;;12.60;6.25;;;;;;;28.65;59.84;100506.78;5134890;27;20414;-86
2022/06/01 08:13:42;;;;;;;18.73;7.05;;;;;;;27.95;62.64;100502.41;5110509;28;20036;-83
2022/06/01 08:16:08;;;;;;;13.95;6.28;;;;;;;27.79;63.66;100503.53;5108836;28;20033;-86
2022/06/01 08:18:33;;;;;;;17.90;6.68;;;;;;;27.86;62.15;100505.97;5105725;28;20044;-84
2022/06/01 08:20:59;;;;;;;16.25;6.55;;;;;;;27.99;62.16;100506.22;5101950;28;20040;-92
2022/06/01 08:23:27;;;;;;;16.23;7.05;;;;;;;28.33;60.68;100509.13;5093322;28;20075;-88
2022/06/01 08:25:53;;;;;;;11.25;6.53;;;;;;;28.54;59.96;100498.91;5108319;28;20036;-84
2022/06/01 08:28:19;;;;;;;12.07;6.93;;;;;;;28.66;59.94;100496.72;5091025;28;20115;-92
2022/06/01 08:30:46;;;;;;;23.50;8.35;;;;;;;28.77;58.79;100498.25;5091352;28;20113;-88
2022/06/01 08:33:12;;;;;;;21.02;9.35;;;;;;;28.46;60.07;100502.25;5090849;28;20081;-83
2022/06/01 08:35:41;;;;;;;27.05;10.27;;;;;;;28.60;60.11;100497.81;5094547;28;20063;-85
2022/06/01 08:38:07;;;;;;;19.98;10.90;;;;;;;28.63;59.71;100497.25;5094928;28;20123;-83
2022/06/01 08:40:39;;;;;;;18.98;10.38;;;;;;;28.81;58.84;100499.31;5102781;28;20120;-85
2022/06/01 08:43:10;;;;;;;22.42;9.68;;;;;;;29.05;58.65;100494.78;5110169;28;20036;-83
2022/06/01 08:45:37;;;;;;;14.13;8.65;;;;;;;28.96;60.28;100499.25;5106190;28;20060;-84
2022/06/01 08:48:03;;;;;;;18.05;10.18;;;;;;;29.57;57.13;100496.00;5109978;28;20027;-83
2022/06/01 08:50:37;;;;;;;19.65;11.50;;;;;;;29.43;57.75;100506.00;5109809;28;20038;-82
2022/06/01 08:53:06;;;;;;;22.73;9.98;;;;;;;29.37;57.59;100502.47;5109915;28;20367;-83
2022/06/01 08:55:40;;;;;;;19.95;10.75;;;;;;;29.83;56.20;100505.59;5105532;28;20028;-83
2022/06/01 08:58:13;;;;;;;18.10;10.43;;;;;;;29.94;56.18;100507.13;5109972;28;20035;-84
2022/06/01 09:00:47;;;;;;;21.63;10.40;;;;;;;30.57;54.88;100510.47;5110609;28;20115;-82
2022/06/01 09:03:23;;;;;;;16.98;10.90;;;;;;;30.13;55.09;100515.38;5109751;28;20074;-82
2022/06/01 09:05:54;;;;;;;18.50;10.38;;;;;;;29.59;57.81;100516.47;5101566;28;20071;-83
2022/06/01 09:08:44;;;;;;;19.48;12.10;;;;;;;29.69;56.73;100512.84;5109981;28;20516;-86
2022/06/01 09:11:14;;;;;;;22.85;12.65;;;;;;;29.43;57.49;100511.44;5109731;28;20093;-84
2022/06/01 09:13:39;;;;;;;19.75;12.60;;;;;;;29.60;56.46;100511.81;5110801;28;20028;-85
2022/06/01 09:16:19;;;;;;;19.45;12.10;;;;;;;29.46;57.60;100506.22;5109010;28;20468;-84
2022/06/01 09:18:51;;;;;;;22.15;11.52;;;;;;;29.71;56.45;100518.81;5110516;28;20433;-83
2022/06/01 09:24:07;;;;;;;21.40;9.75;;;;;;;30.08;57.18;100513.53;5077239;28;20047;-89
2022/06/01 09:26:34;;;;;;;26.95;13.98;;;;;;;29.65;57.41;100514.50;5086904;28;20493;-88
2022/06/01 09:29:02;;;;;;;21.98;12.05;;;;;;;29.82;57.75;100520.34;5095469;28;20552;-88
2022/06/01 09:31:28;;;;;;;17.25;11.30;;;;;;;29.82;58.70;100516.81;5094812;28;20039;-86
2022/06/01 09:34:14;;;;;;;17.80;11.32;;;;;;;29.50;58.04;100515.47;5091330;28;20439;-86
2022/06/01 09:36:56;;;;;;;20.77;12.27;;;;;;;28.56;61.24;100518.56;5092306;28;20043;-82
2022/06/01 09:39:22;;;;;;;19.58;13.82;;;;;;;27.38;65.37;100512.81;5095535;28;20054;-87
2022/06/01 09:41:48;;;;;;;48.90;26.27;;;;;;;27.22;67.36;100498.41;5095196;28;20032;-89
2022/06/01 09:44:18;;;;;;;39.58;20.42;;;;;;;27.84;65.79;100511.69;5090982;28;20036;-88
2022/06/01 09:46:55;;;;;;;24.73;14.48;;;;;;;28.08;63.68;100501.03;5092477;28;20576;-91
2022/06/01 09:49:32;;;;;;;20.30;13.77;;;;;;;27.26;64.71;100498.66;5098148;28;20123;-89
2022/06/01 09:52:11;;;;;;;19.95;12.35;;;;;;;27.40;66.00;100497.84;5098665;28;20123;-90
2022/06/01 09:54:52;;;;;;;23.35;13.00;;;;;;;27.86;66.09;100503.25;5075268;28;20122;-90
2022/06/01 09:57:37;;;;;;;17.05;12.23;;;;;;;28.17;63.51;100504.84;5085415;28;20036;-90
2022/06/01 10:06:30;;;;;;;19.95;12.30;;;;;;;28.28;60.45;100511.84;5091183;28;20031;-89
2022/06/01 10:09:14;;;;;;;29.75;14.38;;;;;;;27.71;62.75;100506.81;5080962;28;20067;-89
2022/06/01 10:11:46;;;;;;;18.77;10.93;;;;;;;28.36;61.96;100510.47;5090605;28;20032;-90
2022/06/01 10:14:20;;;;;;;22.50;11.60;;;;;;;28.38;59.51;100516.44;5082177;28;20036;-90
2022/06/01 10:17:07;;;;;;;26.45;12.63;;;;;;;27.93;61.95;100509.22;5079281;28;20063;-92
2022/06/01 10:19:38;;;;;;;18.15;12.68;;;;;;;28.32;62.11;100503.94;5082461;28;20037;-90
2022/06/01 10:22:16;;;;;;;21.60;12.65;;;;;;;28.78;59.50;100505.34;5077504;28;20082;-88
2022/06/01 10:25:12;;;;;;;22.50;12.07;;;;;;;28.98;58.69;100510.69;5079272;28;20024;-90
2022/06/01 10:27:49;;;;;;;23.15;12.18;;;;;;;29.17;58.54;100508.88;5074381;28;20504;-90
2022/06/01 10:30:23;;;;;;;18.00;11.82;;;;;;;29.26;58.30;100511.03;5079116;28;20043;-91
2022/06/01 10:33:27;;;;;;;22.10;12.10;;;;;;;29.12;59.23;100503.47;5078488;28;20097;-91
2022/06/01 10:36:12;;;;;;;17.90;11.77;;;;;;;29.35;56.80;100503.88;5091593;28;20036;-90
2022/06/01 10:38:55;;;;;;;20.05;10.93;;;;;;;28.96;57.58;100507.44;5102255;28;20028;-93
2022/06/01 10:41:44;;;;;;;16.52;11.32;;;;;;;29.02;57.56;100506.28;5097999;28;20560;-91
2022/06/01 10:44:52;;;;;;;20.88;10.60;;;;;;;28.95;58.69;100500.34;5095186;28;20040;-90
2022/06/01 10:47:38;;;;;;;19.38;11.15;;;;;;;30.02;54.49;100511.16;5071171;28;20478;-91
2022/06/01 10:50:30;;;;;;;16.98;10.70;;;;;;;30.39;54.75;100503.03;5087431;28;20053;-94
2022/06/01 10:53:04;;;;;;;13.43;7.78;;;;;;;30.79;52.95;100512.63;5090606;28;20118;-94
2022/06/01 10:55:58;;;;;;;17.27;9.55;;;;;;;31.02;51.70;100500.81;5092531;28;20024;-95
2022/06/01 10:58:28;;;;;;;18.45;12.00;;;;;;;30.93;52.06;100502.53;5101408;22;20060;-93
2022/06/01 11:01:20;;;;;;;23.23;12.23;;;;;;;30.60;53.55;100493.44;5035486;28;20049;-92
2022/06/01 11:04:20;;;;;;;16.30;10.55;;;;;;;30.32;54.81;100486.16;5027977;28;20037;-91
2022/06/01 11:07:14;;;;;;;17.55;10.57;;;;;;;29.51;56.07;100484.31;5252361;22;20040;-89
2022/06/01 11:09:43;;;;;;;20.65;10.52;;;;;;;29.12;57.33;100489.84;5043517;28;20402;-85
2022/06/01 11:12:40;;;;;;;21.00;10.68;;;;;;;29.08;57.65;100483.31;5075547;28;20028;-89
2022/06/01 11:15:14;;;;;;;20.83;11.10;;;;;;;28.98;58.07;100485.28;5071832;28;20033;-87
2022/06/01 11:17:45;;;;;;;18.25;10.93;;;;;;;28.92;59.18;100478.25;5059786;28;20034;-86
2022/06/01 11:20:28;;;;;;;22.85;10.35;;;;;;;28.66;60.35;100483.88;5078580;28;20056;-91
2022/06/01 11:23:06;;;;;;;25.70;13.82;;;;;;;28.29;60.66;100480.78;5079889;28;20019;-90
2022/06/01 11:25:47;;;;;;;25.42;14.05;;;;;;;28.04;61.36;100478.94;5060277;28;20040;-88
2022/06/01 11:28:53;;;;;;;20.80;13.15;;;;;;;27.61;63.31;100474.16;5057622;28;20037;-91
2022/06/01 11:31:23;;;;;;;21.38;14.63;;;;;;;27.34;64.15;100473.63;5097744;28;20154;-89
2022/06/01 11:33:48;;;;;;;25.60;13.82;;;;;;;26.86;65.68;100462.19;5077827;28;20043;-85
2022/06/01 11:36:21;;;;;;;18.80;14.05;;;;;;;26.71;67.15;100459.44;5077633;28;20051;-89
2022/06/01 11:39:13;;;;;;;21.75;14.23;;;;;;;26.68;67.13;100458.06;5077532;28;20034;-85
2022/06/01 11:41:50;;;;;;;20.60;13.63;;;;;;;26.82;66.70;100452.13;5074710;28;20444;-88
2022/06/01 11:44:24;;;;;;;22.50;12.27;;;;;;;26.98;66.92;100445.63;5070427;28;20044;-90
2022/06/01 11:46:59;;;;;;;24.35;13.55;;;;;;;27.19;64.55;100439.91;5073145;28;20025;-89